createdAt,value
2022-12-19T00:00:26.516Z,68
2022-12-19T00:01:24.727Z,68
2022-12-19T00:02:47.069Z,67
2022-12-19T00:03:35.061Z,68
2022-12-19T00:04:35.721Z,67
2022-12-19T00:05:32.006Z,67
2022-12-19T00:06:33.771Z,68
2022-12-19T00:07:37.645Z,68
2022-12-19T00:08:35.178Z,67
2022-12-19T00:09:36.060Z,67
2022-12-19T00:10:46.499Z,68
2022-12-19T00:11:42.491Z,68
2022-12-19T00:12:30.141Z,69
2022-12-19T00:13:24.110Z,68
2022-12-19T00:14:36.604Z,69
2022-12-19T00:15:26.974Z,68
2022-12-19T00:16:21.952Z,68
2022-12-19T00:17:49.699Z,68
2022-12-19T00:18:43.639Z,68
2022-12-19T00:19:21.618Z,69
2022-12-19T00:20:28.675Z,69
2022-12-19T00:21:20.498Z,69
2022-12-19T00:22:34.495Z,69
2022-12-19T00:23:24.659Z,70
2022-12-19T00:24:41.369Z,69
2022-12-19T00:25:26.472Z,69
2022-12-19T00:26:34.433Z,69
2022-12-19T00:27:19.629Z,69
2022-12-19T00:28:25.426Z,70
2022-12-19T00:29:34.906Z,69
2022-12-19T00:30:32.762Z,70
2022-12-19T00:31:22.042Z,70
2022-12-19T00:32:43.571Z,69
2022-12-19T00:33:37.924Z,69
2022-12-19T00:34:25.627Z,69
2022-12-19T00:35:30.267Z,69
2022-12-19T00:36:24.024Z,69
2022-12-19T00:37:33.139Z,69
2022-12-19T00:38:25.287Z,69
2022-12-19T00:39:55.041Z,69
2022-12-19T00:40:39.901Z,69
2022-12-19T00:41:28.413Z,70
2022-12-19T00:42:27.651Z,70
2022-12-19T00:43:26.879Z,70
2022-12-19T00:44:36.603Z,70
2022-12-19T00:45:20.664Z,70
2022-12-19T00:46:22.700Z,70
2022-12-19T00:47:19.641Z,70
2022-12-19T00:48:28.943Z,69
2022-12-19T00:49:37.723Z,70
2022-12-19T00:50:30.588Z,70
2022-12-19T00:51:23.631Z,70
2022-12-19T00:52:23.718Z,70
2022-12-19T00:53:28.476Z,70
2022-12-19T00:54:20.234Z,70
2022-12-19T00:55:28.289Z,70
2022-12-19T00:56:40.557Z,71
2022-12-19T00:57:35.417Z,71
2022-12-19T00:58:27.320Z,70
2022-12-19T00:59:29.611Z,70
2022-12-19T01:00:32.035Z,70
2022-12-19T01:01:26.097Z,70
2022-12-19T01:02:37.099Z,70
2022-12-19T01:03:21.718Z,70
2022-12-19T01:04:33.377Z,69
2022-12-19T01:05:36.266Z,69
2022-12-19T01:06:27.171Z,69
2022-12-19T01:07:37.219Z,69
2022-12-19T01:08:30.121Z,69
2022-12-19T01:09:21.355Z,70
2022-12-19T01:10:26.357Z,70
2022-12-19T01:11:22.864Z,70
2022-12-19T01:12:36.899Z,70
2022-12-19T01:13:28.943Z,70
2022-12-19T01:14:23.060Z,70
2022-12-19T01:15:32.539Z,70
2022-12-19T01:16:27.481Z,70
2022-12-19T01:17:29.041Z,70
2022-12-19T01:18:21.001Z,69
2022-12-19T01:19:32.133Z,70
2022-12-19T01:20:33.986Z,70
2022-12-19T01:21:26.127Z,69
2022-12-19T01:22:36.771Z,69
2022-12-19T01:23:32.974Z,70
2022-12-19T01:24:23.904Z,70
2022-12-19T01:25:20.257Z,69
2022-12-19T01:26:43.686Z,69
2022-12-19T01:27:31.721Z,70
2022-12-19T01:28:31.685Z,70
2022-12-19T01:29:21.721Z,70
2022-12-19T01:30:34.250Z,71
2022-12-19T01:31:28.639Z,71
2022-12-19T01:32:20.887Z,70
2022-12-19T01:33:33.629Z,70
2022-12-19T01:34:44.327Z,70
2022-12-19T01:35:24.553Z,69
2022-12-19T01:36:25.827Z,70
2022-12-19T01:37:38.517Z,70
2022-12-19T01:38:27.429Z,71
2022-12-19T01:39:20.740Z,71
2022-12-19T01:40:32.197Z,70
2022-12-19T01:41:46.840Z,70
2022-12-19T01:42:37.233Z,70
2022-12-19T01:43:32.488Z,70
2022-12-19T01:44:23.225Z,70
2022-12-19T01:45:33.123Z,71
2022-12-19T01:46:28.797Z,70
2022-12-19T01:47:23.296Z,70
2022-12-19T01:48:28.165Z,70
2022-12-19T01:49:34.611Z,70
2022-12-19T01:50:23.150Z,71
2022-12-19T01:51:32.754Z,71
2022-12-19T01:52:39.736Z,71
2022-12-19T01:53:34.994Z,71
2022-12-19T01:54:26.819Z,71
2022-12-19T01:55:27.409Z,71
2022-12-19T01:56:41.898Z,71
2022-12-19T01:57:26.856Z,70
2022-12-19T01:58:55.397Z,70
2022-12-19T01:59:24.880Z,71
2022-12-19T02:00:22.751Z,71
2022-12-19T02:01:21.570Z,71
2022-12-19T02:02:24.142Z,71
2022-12-19T02:10:26.510Z,71
2022-12-19T02:12:40.141Z,71
2022-12-19T02:12:44.681Z,71
2022-12-19T02:13:35.695Z,71
2022-12-19T02:19:22.303Z,72
2022-12-19T02:20:38.211Z,72
2022-12-19T02:21:30.166Z,71
2022-12-19T02:22:21.319Z,72
2022-12-19T02:23:36.159Z,72
2022-12-19T02:24:28.518Z,70
2022-12-19T02:25:23.175Z,70
2022-12-19T02:26:25.049Z,71
2022-12-19T02:27:40.672Z,71
2022-12-19T02:28:20.307Z,71
2022-12-19T02:29:25.283Z,71
2022-12-19T02:30:40.416Z,71
2022-12-19T02:31:33.418Z,71
2022-12-19T02:32:26.445Z,71
2022-12-19T02:33:32.878Z,71
2022-12-19T02:34:23.700Z,71
2022-12-19T02:35:21.852Z,71
2022-12-19T02:36:30.720Z,71
2022-12-19T02:37:23.812Z,72
2022-12-19T02:38:38.661Z,72
2022-12-19T02:39:33.791Z,72
2022-12-19T02:40:23.991Z,72
2022-12-19T02:41:39.679Z,72
2022-12-19T02:42:41.369Z,72
2022-12-19T02:43:34.464Z,72
2022-12-19T02:44:26.195Z,72
2022-12-19T02:45:28.626Z,72
2022-12-19T02:46:36.453Z,72
2022-12-19T02:47:32.718Z,72
2022-12-19T02:48:22.401Z,72
2022-12-19T02:49:28.275Z,72
2022-12-19T02:50:38.317Z,72
2022-12-19T02:51:32.368Z,72
2022-12-19T02:52:23.917Z,72
2022-12-19T02:53:32.383Z,72
2022-12-19T02:54:33.460Z,72
2022-12-19T02:55:25.010Z,72
2022-12-19T02:56:21.428Z,72
2022-12-19T02:57:32.312Z,72
2022-12-19T02:58:36.150Z,72
2022-12-19T02:59:27.388Z,73
2022-12-19T03:00:22.722Z,74
2022-12-19T03:01:33.510Z,74
2022-12-19T03:02:26.220Z,73
2022-12-19T03:03:22.177Z,72
2022-12-19T03:04:30.895Z,73
2022-12-19T03:05:27.885Z,73
2022-12-19T03:06:23.096Z,73
2022-12-19T03:07:26.573Z,73
2022-12-19T03:08:28.703Z,73
2022-12-19T03:09:24.441Z,73
2022-12-19T03:10:26.280Z,73
2022-12-19T03:11:44.385Z,73
2022-12-19T03:12:38.615Z,73
2022-12-19T03:13:23.797Z,73
2022-12-19T03:14:33.655Z,73
2022-12-19T03:15:22.670Z,73
2022-12-19T03:16:32.856Z,73
2022-12-19T03:17:20.480Z,73
2022-12-19T03:18:23.478Z,73
2022-12-19T03:19:26.331Z,74
2022-12-19T03:20:26.628Z,73
2022-12-19T03:21:33.038Z,73
2022-12-19T03:22:27.448Z,73
2022-12-19T03:23:24.507Z,73
2022-12-19T03:24:22.085Z,73
2022-12-19T03:25:34.235Z,73
2022-12-19T03:26:21.719Z,73
2022-12-19T03:27:23.119Z,73
2022-12-19T03:28:38.326Z,73
2022-12-19T03:29:29.189Z,74
2022-12-19T03:30:23.166Z,74
2022-12-19T03:31:25.098Z,74
2022-12-19T03:32:34.007Z,74
2022-12-19T03:33:27.425Z,74
2022-12-19T03:34:23.265Z,74
2022-12-19T03:35:20.120Z,74
2022-12-19T03:36:29.972Z,74
2022-12-19T03:37:26.354Z,74
2022-12-19T03:38:27.544Z,74
2022-12-19T03:39:37.792Z,74
2022-12-19T03:40:29.505Z,74
2022-12-19T03:41:24.756Z,74
2022-12-19T03:42:23.095Z,74
2022-12-19T03:43:28.643Z,74
2022-12-19T03:44:24.946Z,74
2022-12-19T03:45:24.787Z,74
2022-12-19T03:46:32.749Z,74
2022-12-19T03:47:23.532Z,74
2022-12-19T03:48:22.768Z,75
2022-12-19T03:49:21.525Z,75
2022-12-19T03:50:28.853Z,75
2022-12-19T03:51:26.500Z,75
2022-12-19T03:52:20.677Z,75
2022-12-19T03:53:22.520Z,75
2022-12-19T03:54:26.958Z,75
2022-12-19T03:55:33.388Z,75
2022-12-19T03:56:25.358Z,75
2022-12-19T03:57:28.463Z,75
2022-12-19T03:58:22.336Z,75
2022-12-19T03:59:35.271Z,75
2022-12-19T04:00:25.248Z,75
2022-12-19T04:01:26.591Z,75
2022-12-19T04:02:37.443Z,75
2022-12-19T04:03:28.437Z,75
2022-12-19T04:04:21.261Z,74
2022-12-19T04:05:24.593Z,74
2022-12-19T04:06:22.207Z,74
2022-12-19T04:07:31.997Z,75
2022-12-19T04:08:21.223Z,74
2022-12-19T04:09:22.874Z,74
2022-12-19T04:10:36.878Z,74
2022-12-19T04:11:23.808Z,74
2022-12-19T04:12:26.527Z,74
2022-12-19T04:13:20.619Z,74
2022-12-19T04:14:32.397Z,74
2022-12-19T04:15:25.360Z,75
2022-12-19T04:16:23.940Z,74
2022-12-19T04:17:34.295Z,74
2022-12-19T04:18:26.667Z,74
2022-12-19T04:19:22.824Z,74
2022-12-19T04:20:22.349Z,74
2022-12-19T04:21:27.783Z,74
2022-12-19T04:22:22.299Z,74
2022-12-19T04:23:22.382Z,75
2022-12-19T04:24:33.217Z,75
2022-12-19T04:25:30.593Z,74
2022-12-19T04:26:27.842Z,75
2022-12-19T04:27:19.992Z,75
2022-12-19T04:28:30.814Z,75
2022-12-19T04:29:24.390Z,75
2022-12-19T04:30:27.401Z,75
2022-12-19T04:31:49.011Z,75
2022-12-19T04:32:25.419Z,75
2022-12-19T04:33:32.271Z,74
2022-12-19T04:34:21.606Z,74
2022-12-19T04:35:40.706Z,75
2022-12-19T04:36:26.858Z,75
2022-12-19T04:37:22.359Z,75
2022-12-19T04:38:25.190Z,74
2022-12-19T04:39:36.343Z,74
2022-12-19T04:40:22.003Z,74
2022-12-19T04:41:32.153Z,75
2022-12-19T04:42:21.321Z,75
2022-12-19T04:43:21.015Z,75
2022-12-19T04:44:22.827Z,75
2022-12-19T04:45:26.829Z,75
2022-12-19T04:46:22.114Z,75
2022-12-19T04:47:24.869Z,75
2022-12-19T04:48:20.814Z,75
2022-12-19T04:49:27.975Z,75
2022-12-19T04:50:26.896Z,75
2022-12-19T04:51:38.510Z,75
2022-12-19T04:52:33.890Z,75
2022-12-19T04:53:24.442Z,75
2022-12-19T04:54:26.783Z,75
2022-12-19T04:55:31.288Z,75
2022-12-19T04:56:30.495Z,75
2022-12-19T04:57:24.603Z,75
2022-12-19T04:58:22.209Z,75
2022-12-19T04:59:36.603Z,75
2022-12-19T05:00:24.661Z,76
2022-12-19T05:01:21.627Z,75
2022-12-19T05:02:34.885Z,76
2022-12-19T05:03:35.630Z,75
2022-12-19T05:04:27.409Z,75
2022-12-19T05:05:26.105Z,75
2022-12-19T05:06:32.644Z,76
2022-12-19T05:07:33.226Z,75
2022-12-19T05:08:25.121Z,75
2022-12-19T05:09:20.820Z,76
2022-12-19T05:10:30.431Z,76
2022-12-19T05:11:20.249Z,76
2022-12-19T05:12:24.268Z,76
2022-12-19T05:13:32.366Z,76
2022-12-19T05:14:32.173Z,76
2022-12-19T05:15:24.508Z,76
2022-12-19T05:16:22.802Z,76
2022-12-19T05:17:27.052Z,76
2022-12-19T05:18:26.471Z,76
2022-12-19T05:19:24.100Z,76
2022-12-19T05:20:22.197Z,76
2022-12-19T05:21:30.581Z,76
2022-12-19T05:22:33.618Z,76
2022-12-19T05:23:20.566Z,76
2022-12-19T05:24:30.842Z,76
2022-12-19T05:25:28.015Z,76
2022-12-19T05:26:37.873Z,76
2022-12-19T05:27:20.773Z,76
2022-12-19T05:28:24.215Z,76
2022-12-19T05:29:24.467Z,76
2022-12-19T05:30:21.911Z,76
2022-12-19T05:31:22.968Z,76
2022-12-19T05:32:40.524Z,76
2022-12-19T05:33:23.661Z,77
2022-12-19T05:34:24.256Z,77
2022-12-19T05:35:23.182Z,76
2022-12-19T05:36:42.554Z,76
2022-12-19T05:37:22.289Z,77
2022-12-19T05:38:27.059Z,76
2022-12-19T05:39:20.077Z,77
2022-12-19T05:40:32.688Z,77
2022-12-19T05:41:26.852Z,77
2022-12-19T05:42:28.995Z,76
2022-12-19T05:43:20.145Z,76
2022-12-19T05:44:22.589Z,76
2022-12-19T05:45:24.590Z,77
2022-12-19T05:46:26.957Z,76
2022-12-19T05:47:38.030Z,76
2022-12-19T05:48:32.622Z,77
2022-12-19T05:49:31.427Z,77
2022-12-19T05:50:40.237Z,77
2022-12-19T05:51:30.365Z,77
2022-12-19T05:52:26.146Z,77
2022-12-19T05:53:32.096Z,77
2022-12-19T05:54:22.805Z,77
2022-12-19T05:55:34.239Z,77
2022-12-19T05:56:21.294Z,77
2022-12-19T05:57:24.829Z,77
2022-12-19T05:58:22.053Z,76
2022-12-19T05:59:30.619Z,76
2022-12-19T06:00:26.709Z,76
2022-12-19T06:01:25.522Z,76
2022-12-19T06:02:26.379Z,77
2022-12-19T06:03:23.093Z,77
2022-12-19T06:04:24.425Z,77
2022-12-19T06:05:22.478Z,77
2022-12-19T06:06:31.727Z,76
2022-12-19T06:07:26.707Z,76
2022-12-19T06:08:22.669Z,76
2022-12-19T06:09:24.353Z,76
2022-12-19T06:10:28.491Z,76
2022-12-19T06:11:40.627Z,76
2022-12-19T06:12:30.201Z,76
2022-12-19T06:13:25.202Z,76
2022-12-19T06:14:22.500Z,77
2022-12-19T06:15:22.789Z,77
2022-12-19T06:16:27.444Z,77
2022-12-19T06:17:31.119Z,76
2022-12-19T06:18:45.103Z,76
2022-12-19T06:19:29.373Z,76
2022-12-19T06:20:27.817Z,76
2022-12-19T06:21:20.887Z,76
2022-12-19T06:22:24.197Z,76
2022-12-19T06:23:35.248Z,76
2022-12-19T06:24:24.311Z,75
2022-12-19T06:25:24.676Z,75
2022-12-19T06:26:40.162Z,76
2022-12-19T06:27:31.044Z,76
2022-12-19T06:28:28.275Z,76
2022-12-19T06:29:22.572Z,76
2022-12-19T06:30:26.100Z,75
2022-12-19T06:31:27.365Z,75
2022-12-19T06:32:24.548Z,76
2022-12-19T06:33:21.304Z,76
2022-12-19T06:35:03.166Z,76
2022-12-19T06:35:33.891Z,76
2022-12-19T06:36:21.977Z,75
2022-12-19T06:37:40.400Z,75
2022-12-19T06:38:34.065Z,76
2022-12-19T06:39:27.016Z,76
2022-12-19T06:40:48.792Z,76
2022-12-19T06:41:23.797Z,75
2022-12-19T06:42:26.925Z,75
2022-12-19T06:43:23.709Z,75
2022-12-19T06:44:43.308Z,76
2022-12-19T06:45:35.163Z,76
2022-12-19T06:46:24.881Z,76
2022-12-19T06:47:21.072Z,76
2022-12-19T06:48:33.676Z,76
2022-12-19T06:49:37.340Z,76
2022-12-19T06:50:22.918Z,76
2022-12-19T06:51:23.795Z,76
2022-12-19T06:52:39.246Z,76
2022-12-19T06:53:31.341Z,76
2022-12-19T06:54:20.379Z,77
2022-12-19T06:55:50.469Z,77
2022-12-19T06:56:44.038Z,77
2022-12-19T06:57:27.410Z,77
2022-12-19T06:58:24.615Z,77
2022-12-19T06:59:22.106Z,77
2022-12-19T07:00:37.608Z,77
2022-12-19T07:01:21.226Z,77
2022-12-19T07:02:22.313Z,77
2022-12-19T07:03:43.402Z,77
2022-12-19T07:04:41.991Z,77
2022-12-19T07:05:32.069Z,77
2022-12-19T07:06:26.319Z,77
2022-12-19T07:07:24.766Z,77
2022-12-19T07:08:21.025Z,77
2022-12-19T07:09:21.100Z,77
2022-12-19T07:10:34.062Z,77
2022-12-19T07:11:33.899Z,78
2022-12-19T07:12:37.842Z,78
2022-12-19T07:13:31.337Z,78
2022-12-19T07:14:22.672Z,77
2022-12-19T07:15:26.991Z,77
2022-12-19T07:16:30.573Z,77
2022-12-19T07:17:24.054Z,77
2022-12-19T07:18:22.730Z,77
2022-12-19T07:19:21.912Z,77
2022-12-19T07:20:34.675Z,77
2022-12-19T07:21:27.085Z,77
2022-12-19T07:22:21.485Z,77
2022-12-19T07:23:37.304Z,77
2022-12-19T07:24:27.741Z,77
2022-12-19T07:25:23.974Z,77
2022-12-19T07:26:24.709Z,76
2022-12-19T07:27:37.703Z,77
2022-12-19T07:28:50.389Z,77
2022-12-19T07:29:24.799Z,77
2022-12-19T07:30:20.078Z,77
2022-12-19T07:31:33.696Z,77
2022-12-19T07:32:25.910Z,77
2022-12-19T07:33:29.897Z,77
2022-12-19T07:34:43.796Z,77
2022-12-19T07:35:36.780Z,77
2022-12-19T07:36:20.596Z,77
2022-12-19T07:37:25.467Z,77
2022-12-19T07:38:38.077Z,77
2022-12-19T07:39:28.259Z,76
2022-12-19T07:40:22.764Z,76
2022-12-19T07:41:48.241Z,77
2022-12-19T07:42:41.367Z,77
2022-12-19T07:43:27.302Z,76
2022-12-19T07:44:27.585Z,76
2022-12-19T07:45:27.090Z,76
2022-12-19T07:46:34.914Z,76
2022-12-19T07:47:24.885Z,77
2022-12-19T07:48:21.007Z,76
2022-12-19T07:49:31.797Z,76
2022-12-19T07:50:37.565Z,76
2022-12-19T07:51:32.603Z,76
2022-12-19T07:52:22.711Z,76
2022-12-19T07:53:22.921Z,76
2022-12-19T07:54:22.379Z,76
2022-12-19T07:55:24.712Z,77
2022-12-19T07:56:25.638Z,76
2022-12-19T07:57:42.335Z,76
2022-12-19T07:58:33.957Z,76
2022-12-19T07:59:48.295Z,75
2022-12-19T08:00:21.383Z,76
2022-12-19T08:01:35.997Z,76
2022-12-19T08:02:27.233Z,76
2022-12-19T08:03:54.544Z,76
2022-12-19T08:04:46.270Z,76
2022-12-19T08:05:34.788Z,75
2022-12-19T08:06:22.730Z,76
2022-12-19T08:07:24.074Z,76
2022-12-19T08:08:37.419Z,75
2022-12-19T08:09:43.582Z,75
2022-12-19T08:10:24.840Z,75
2022-12-19T08:11:20.995Z,75
2022-12-19T08:12:39.742Z,74
2022-12-19T08:13:35.509Z,75
2022-12-19T08:14:28.151Z,75
2022-12-19T08:15:22.989Z,74
2022-12-19T08:16:49.417Z,74
2022-12-19T08:17:21.524Z,75
2022-12-19T08:18:20.252Z,74
2022-12-19T08:19:41.306Z,75
2022-12-19T08:20:29.626Z,75
2022-12-19T08:21:34.001Z,74
2022-12-19T08:22:21.795Z,74
2022-12-19T08:23:28.555Z,74
2022-12-19T08:24:23.110Z,74
2022-12-19T08:25:27.196Z,74
2022-12-19T08:26:39.521Z,74
2022-12-19T08:27:27.753Z,74
2022-12-19T08:28:25.666Z,74
2022-12-19T08:29:33.824Z,73
2022-12-19T08:30:23.913Z,73
2022-12-19T08:31:25.970Z,74
2022-12-19T08:32:28.131Z,74
2022-12-19T08:33:21.315Z,74
2022-12-19T08:34:35.881Z,73
2022-12-19T08:35:21.168Z,73
2022-12-19T08:36:33.929Z,73
2022-12-19T08:37:31.376Z,74
2022-12-19T08:38:19.888Z,74
2022-12-19T08:39:22.892Z,73
2022-12-19T08:40:25.255Z,73
2022-12-19T08:41:36.994Z,73
2022-12-19T08:42:26.361Z,73
2022-12-19T08:43:32.878Z,73
2022-12-19T08:44:32.403Z,73
2022-12-19T08:45:24.547Z,73
2022-12-19T08:46:36.429Z,73
2022-12-19T08:47:30.340Z,73
2022-12-19T08:48:22.315Z,74
2022-12-19T08:49:27.372Z,74
2022-12-19T08:50:22.298Z,74
2022-12-19T08:51:34.479Z,73
2022-12-19T08:52:26.447Z,73
2022-12-19T08:53:26.490Z,73
2022-12-19T08:54:34.296Z,74
2022-12-19T08:55:25.832Z,74
2022-12-19T08:56:24.484Z,74
2022-12-19T08:57:39.345Z,74
2022-12-19T08:58:41.177Z,74
2022-12-19T08:59:34.335Z,73
2022-12-19T09:00:26.064Z,73
2022-12-19T09:01:37.292Z,73
2022-12-19T09:02:32.531Z,74
2022-12-19T09:03:24.056Z,74
2022-12-19T09:05:57.538Z,73
2022-12-19T09:06:05.048Z,73
2022-12-19T09:06:12.132Z,73
2022-12-19T09:06:39.169Z,73
2022-12-19T09:07:23.254Z,73
2022-12-19T09:08:22.865Z,73
2022-12-19T09:09:35.137Z,73
2022-12-19T09:10:27.058Z,73
2022-12-19T09:11:20.523Z,72
2022-12-19T09:12:55.765Z,73
2022-12-19T09:13:28.212Z,73
2022-12-19T09:14:36.268Z,72
2022-12-19T09:15:27.646Z,73
2022-12-19T09:16:20.317Z,73
2022-12-19T09:17:39.223Z,72
2022-12-19T09:18:27.284Z,72
2022-12-19T09:19:34.198Z,72
2022-12-19T09:20:47.861Z,72
2022-12-19T09:21:34.131Z,72
2022-12-19T09:22:29.218Z,72
2022-12-19T09:23:24.723Z,73
2022-12-19T09:24:23.503Z,72
2022-12-19T09:25:32.180Z,72
2022-12-19T09:26:21.087Z,72
2022-12-19T09:28:25.658Z,72
2022-12-19T09:28:38.961Z,72
2022-12-19T09:29:24.596Z,72
2022-12-19T09:30:28.752Z,72
2022-12-19T09:31:21.824Z,72
2022-12-19T09:32:32.045Z,72
2022-12-19T09:33:26.515Z,71
2022-12-19T09:34:55.909Z,71
2022-12-19T09:35:25.630Z,71
2022-12-19T09:36:28.012Z,71
2022-12-19T09:37:34.907Z,71
2022-12-19T09:38:26.869Z,71
2022-12-19T09:39:37.968Z,71
2022-12-19T09:40:22.916Z,71
2022-12-19T09:41:22.674Z,71
2022-12-19T09:42:40.786Z,71
2022-12-19T09:43:36.544Z,70
2022-12-19T09:44:36.998Z,71
2022-12-19T09:45:33.231Z,71
2022-12-19T09:46:23.563Z,71
2022-12-19T09:47:24.815Z,71
2022-12-19T09:48:26.827Z,70
2022-12-19T09:49:45.905Z,71
2022-12-19T09:50:34.725Z,71
2022-12-19T09:51:20.230Z,71
2022-12-19T09:52:35.728Z,71
2022-12-19T09:53:29.009Z,71
2022-12-19T09:54:21.755Z,71
2022-12-19T09:55:30.821Z,70
2022-12-19T09:56:23.211Z,70
2022-12-19T09:57:38.332Z,70
2022-12-19T09:58:23.598Z,70
2022-12-19T09:59:49.674Z,70
2022-12-19T10:00:45.643Z,70
2022-12-19T10:01:27.009Z,70
2022-12-19T10:02:34.644Z,70
2022-12-19T10:03:19.815Z,70
2022-12-19T10:04:20.058Z,70
2022-12-19T10:06:02.840Z,70
2022-12-19T10:07:16.303Z,70
2022-12-19T10:08:01.285Z,70
2022-12-19T10:08:09.646Z,71
2022-12-19T10:08:28.880Z,70
2022-12-19T10:12:15.496Z,70
2022-12-19T10:12:40.650Z,70
2022-12-19T10:12:42.887Z,70
2022-12-19T10:12:47.752Z,71
2022-12-19T10:12:53.841Z,70
2022-12-19T10:12:59.582Z,70
2022-12-19T10:13:48.557Z,70
2022-12-19T10:14:41.738Z,70
2022-12-19T10:15:36.071Z,70
2022-12-19T10:16:26.588Z,70
2022-12-19T10:17:35.206Z,70
2022-12-19T10:18:28.256Z,69
2022-12-19T10:19:22.564Z,69
2022-12-19T10:20:23.130Z,69
2022-12-19T10:22:08.062Z,69
2022-12-19T10:22:41.627Z,69
2022-12-19T10:23:29.364Z,69
2022-12-19T10:24:23.578Z,69
2022-12-19T10:25:49.709Z,69
2022-12-19T10:26:30.537Z,69
2022-12-19T10:27:22.141Z,69
2022-12-19T10:28:50.547Z,69
2022-12-19T10:29:44.560Z,69
2022-12-19T10:30:32.551Z,69
2022-12-19T10:31:30.473Z,68
2022-12-19T10:32:31.727Z,68
2022-12-19T10:33:31.150Z,68
2022-12-19T10:34:26.597Z,68
2022-12-19T10:35:54.652Z,68
2022-12-19T10:37:26.555Z,67
2022-12-19T10:37:42.393Z,67
2022-12-19T10:38:21.470Z,68
2022-12-19T10:39:24.845Z,68
2022-12-19T10:40:33.499Z,67
2022-12-19T10:41:28.738Z,67
2022-12-19T10:42:58.451Z,67
2022-12-19T10:43:35.640Z,67
2022-12-19T10:44:38.376Z,67
2022-12-19T10:45:24.542Z,67
2022-12-19T10:46:31.665Z,67
2022-12-19T10:47:22.491Z,67
2022-12-19T10:48:22.022Z,67
2022-12-19T10:49:23.065Z,67
2022-12-19T10:50:48.159Z,67
2022-12-19T10:51:40.501Z,67
2022-12-19T10:52:28.832Z,66
2022-12-19T10:53:34.561Z,67
2022-12-19T10:54:33.592Z,67
2022-12-19T10:55:21.533Z,67
2022-12-19T10:56:20.931Z,67
2022-12-19T10:57:20.155Z,67
2022-12-19T10:58:43.672Z,67
2022-12-19T10:59:29.085Z,66
2022-12-19T11:00:34.842Z,66
2022-12-19T11:01:32.268Z,66
2022-12-19T11:02:26.179Z,65
2022-12-19T11:03:24.879Z,65
2022-12-19T11:04:24.250Z,65
2022-12-19T11:05:22.586Z,66
2022-12-19T11:06:37.576Z,66
2022-12-19T11:07:41.922Z,66
2022-12-19T11:08:36.832Z,65
2022-12-19T11:09:31.659Z,66
2022-12-19T11:12:18.644Z,65
2022-12-19T11:13:26.479Z,65
2022-12-19T11:15:50.415Z,65
2022-12-19T11:18:50.890Z,66
2022-12-19T11:18:53.136Z,66
2022-12-19T11:20:57.108Z,66
2022-12-19T11:21:55.184Z,66
2022-12-19T11:25:12.531Z,66
2022-12-19T11:29:13.084Z,66
2022-12-19T11:29:18.523Z,66
2022-12-19T11:29:25.112Z,66
2022-12-19T11:29:27.630Z,66
2022-12-19T11:29:44.961Z,66
2022-12-19T11:30:06.589Z,66
2022-12-19T11:30:36.476Z,66
2022-12-19T11:30:47.445Z,66
2022-12-19T11:30:48.003Z,66
2022-12-19T11:30:48.003Z,66
2022-12-19T11:31:58.430Z,66
2022-12-19T11:32:33.938Z,66
2022-12-19T11:32:44.363Z,66
2022-12-19T11:32:47.060Z,67
2022-12-19T11:32:48.066Z,67
2022-12-19T11:32:49.288Z,66
2022-12-19T11:32:50.667Z,66
2022-12-19T11:32:51.902Z,67
2022-12-19T11:32:53.108Z,67
2022-12-19T11:33:05.736Z,67
2022-12-19T11:33:11.300Z,67
2022-12-19T11:33:22.010Z,67
2022-12-19T11:33:32.820Z,67
2022-12-19T11:33:43.563Z,67
2022-12-19T11:33:54.262Z,67
2022-12-19T11:34:04.935Z,68
2022-12-19T11:34:26.274Z,68
2022-12-19T11:34:31.754Z,68
2022-12-19T11:34:42.427Z,68
2022-12-19T11:35:36.573Z,68
2022-12-19T11:36:54.504Z,68
2022-12-19T11:37:46.933Z,67
2022-12-19T11:38:40.916Z,67
2022-12-19T11:39:27.780Z,67
2022-12-19T11:40:44.916Z,67
2022-12-19T11:41:32.711Z,67
2022-12-19T11:42:23.126Z,67
2022-12-19T11:43:56.262Z,67
2022-12-19T11:44:50.715Z,67
2022-12-19T11:45:32.802Z,66
2022-12-19T11:46:32.930Z,66
2022-12-19T11:47:24.762Z,66
2022-12-19T11:48:21.418Z,66
2022-12-19T11:49:27.186Z,66
2022-12-19T11:50:19.861Z,66
2022-12-19T11:51:37.728Z,66
2022-12-19T11:53:09.412Z,66
2022-12-19T11:53:33.791Z,66
2022-12-19T11:54:32.647Z,66
2022-12-19T11:55:25.602Z,65
2022-12-19T11:56:32.099Z,66
2022-12-19T11:57:24.076Z,65
2022-12-19T11:58:56.281Z,65
2022-12-19T11:59:52.877Z,65
2022-12-19T12:00:37.015Z,65
2022-12-19T12:01:23.817Z,65
2022-12-19T12:02:33.327Z,65
2022-12-19T12:03:23.807Z,65
2022-12-19T12:04:32.455Z,65
2022-12-19T12:05:21.163Z,65
2022-12-19T12:06:52.865Z,65
2022-12-19T12:08:54.296Z,65
2022-12-19T12:10:21.217Z,65
2022-12-19T12:13:14.835Z,65
2022-12-19T12:14:45.493Z,65
2022-12-19T12:18:11.361Z,65
2022-12-19T12:20:16.182Z,65
2022-12-19T12:21:10.556Z,65
2022-12-19T12:22:50.852Z,65
2022-12-19T12:23:43.092Z,65
2022-12-19T12:30:59.036Z,65
2022-12-19T12:30:59.231Z,65
2022-12-19T12:31:04.574Z,65
2022-12-19T12:31:15.934Z,64
2022-12-19T12:31:17.330Z,64
2022-12-19T12:31:18.579Z,64
2022-12-19T12:31:20.323Z,65
2022-12-19T12:31:31.378Z,65
2022-12-19T12:31:39.146Z,65
2022-12-19T12:31:43.660Z,65
2022-12-19T12:31:46.588Z,65
2022-12-19T12:31:52.919Z,65
2022-12-19T12:31:57.750Z,65
2022-12-19T12:31:57.753Z,65
2022-12-19T12:35:48.610Z,65
2022-12-19T12:35:52.361Z,65
2022-12-19T12:35:56.637Z,65
2022-12-19T12:36:52.999Z,65
2022-12-19T12:38:13.785Z,65
2022-12-19T12:38:22.615Z,64
2022-12-19T12:38:27.268Z,64
2022-12-19T12:38:29.565Z,64
2022-12-19T12:38:31.180Z,65
2022-12-19T12:38:32.971Z,65
2022-12-19T12:38:34.591Z,65
2022-12-19T12:38:36.643Z,65
2022-12-19T12:38:37.790Z,65
2022-12-19T12:38:48.884Z,65
2022-12-19T12:39:05.322Z,65
2022-12-19T12:39:20.924Z,65
2022-12-19T12:39:31.551Z,66
2022-12-19T12:39:38.924Z,66
2022-12-19T12:39:49.608Z,65
2022-12-19T12:39:55.056Z,65
2022-12-19T12:40:05.660Z,65
2022-12-19T12:40:16.294Z,64
2022-12-19T12:40:24.901Z,64
2022-12-19T12:40:35.635Z,64
2022-12-19T12:40:46.387Z,64
2022-12-19T12:40:57.041Z,64
2022-12-19T12:41:07.724Z,65
2022-12-19T12:41:18.354Z,65
2022-12-19T12:41:28.688Z,64
2022-12-19T12:42:27.318Z,64
2022-12-19T12:43:21.343Z,64
2022-12-19T12:44:33.304Z,64
2022-12-19T12:45:31.225Z,65
2022-12-19T12:46:23.320Z,65
2022-12-19T12:47:37.007Z,64
2022-12-19T12:48:23.994Z,65
2022-12-19T12:49:20.314Z,65
2022-12-19T12:50:23.793Z,65
2022-12-19T12:51:21.073Z,65
2022-12-19T12:52:26.689Z,65
2022-12-19T12:53:42.212Z,64
2022-12-19T12:54:40.524Z,64
2022-12-19T12:55:26.386Z,64
2022-12-19T12:56:25.145Z,64
2022-12-19T12:57:30.531Z,64
2022-12-19T12:58:23.923Z,64
2022-12-19T12:59:20.053Z,63
2022-12-19T13:01:01.532Z,63
2022-12-19T13:01:44.617Z,63
2022-12-19T13:02:29.584Z,63
2022-12-19T13:03:23.741Z,62
2022-12-19T13:04:21.614Z,63
2022-12-19T13:05:27.100Z,63
2022-12-19T13:06:24.213Z,62
2022-12-19T13:07:55.549Z,62
2022-12-19T13:08:38.726Z,63
2022-12-19T13:09:28.239Z,63
2022-12-19T13:10:44.615Z,63
2022-12-19T13:11:27.600Z,62
2022-12-19T13:12:29.080Z,62
2022-12-19T13:13:25.837Z,62
2022-12-19T13:14:21.449Z,62
2022-12-19T13:15:34.758Z,62
2022-12-19T13:16:33.962Z,62
2022-12-19T13:17:20.897Z,62
2022-12-19T13:18:32.727Z,62
2022-12-19T13:19:28.332Z,62
2022-12-19T13:20:27.878Z,61
2022-12-19T13:21:27.125Z,61
2022-12-19T13:22:52.945Z,62
2022-12-19T13:23:39.535Z,62
2022-12-19T13:24:25.940Z,62
2022-12-19T13:25:34.559Z,62
2022-12-19T13:26:32.884Z,63
2022-12-19T13:27:22.079Z,63
2022-12-19T13:28:22.893Z,63
2022-12-19T13:29:54.075Z,63
2022-12-19T13:31:09.408Z,63
2022-12-19T13:31:24.106Z,63
2022-12-19T13:32:37.669Z,63
2022-12-19T13:33:33.231Z,63
2022-12-19T13:34:24.711Z,63
2022-12-19T13:36:27.476Z,64
2022-12-19T13:37:05.648Z,64
2022-12-19T13:39:54.781Z,64
2022-12-19T13:39:55.542Z,64
2022-12-19T13:40:02.199Z,64
2022-12-19T13:40:12.075Z,64
2022-12-19T13:40:20.355Z,64
2022-12-19T13:40:22.541Z,65
2022-12-19T13:40:37.407Z,65
2022-12-19T13:41:29.329Z,65
2022-12-19T13:42:26.216Z,65
2022-12-19T13:43:23.998Z,66
2022-12-19T13:44:47.441Z,66
2022-12-19T13:45:34.491Z,65
2022-12-19T13:46:21.483Z,65
2022-12-19T13:47:23.922Z,65
2022-12-19T13:48:26.433Z,66
2022-12-19T13:49:29.634Z,66
2022-12-19T13:50:28.380Z,65
2022-12-19T13:51:22.330Z,66